sensor_id;sensor_type;location;lat;lon;timestamp;P1;durP1;ratioP1;P2;durP2;ratioP2
11943;SDS011;6031;50.220;10.122;2023-05-10T00:02:12;5.50;;;4.27;;
11943;SDS011;6031;50.220;10.122;2023-05-10T00:04:37;4.30;;;3.30;;
11943;SDS011;6031;50.220;10.122;2023-05-10T00:07:03;5.67;;;4.57;;
11943;SDS011;6031;50.220;10.122;2023-05-10T00:09:28;5.20;;;4.37;;
11943;SDS011;6031;50.220;10.122;2023-05-10T00:11:54;5.00;;;4.53;;
11943;SDS011;6031;50.220;10.122;2023-05-10T00:14:19;4.33;;;3.93;;
11943;SDS011;6031;50.220;10.122;2023-05-10T00:16:45;5.07;;;4.40;;
11943;SDS011;6031;50.220;10.122;2023-05-10T00:19:11;5.50;;;4.90;;
11943;SDS011;6031;50.220;10.122;2023-05-10T00:21:36;5.37;;;4.87;;
11943;SDS011;6031;50.220;10.122;2023-05-10T00:24:02;5.90;;;5.40;;
11943;SDS011;6031;50.220;10.122;2023-05-10T00:26:27;5.63;;;5.13;;
11943;SDS011;6031;50.220;10.122;2023-05-10T00:28:53;5.20;;;4.70;;
11943;SDS011;6031;50.220;10.122;2023-05-10T00:31:18;6.50;;;5.77;;
11943;SDS011;6031;50.220;10.122;2023-05-10T00:33:44;5.40;;;4.97;;
11943;SDS011;6031;50.220;10.122;2023-05-10T00:36:10;3.87;;;3.57;;
11943;SDS011;6031;50.220;10.122;2023-05-10T00:38:36;5.93;;;5.40;;
11943;SDS011;6031;50.220;10.122;2023-05-10T00:41:02;5.97;;;5.47;;
11943;SDS011;6031;50.220;10.122;2023-05-10T00:43:27;6.17;;;5.50;;
11943;SDS011;6031;50.220;10.122;2023-05-10T00:45:53;6.07;;;5.47;;
11943;SDS011;6031;50.220;10.122;2023-05-10T00:48:19;8.47;;;5.77;;
11943;SDS011;6031;50.220;10.122;2023-05-10T00:50:45;3.67;;;3.33;;
11943;SDS011;6031;50.220;10.122;2023-05-10T00:53:10;4.80;;;4.30;;
11943;SDS011;6031;50.220;10.122;2023-05-10T00:55:37;4.33;;;3.97;;
11943;SDS011;6031;50.220;10.122;2023-05-10T00:58:02;4.43;;;4.13;;
11943;SDS011;6031;50.220;10.122;2023-05-10T01:00:29;4.60;;;4.20;;
11943;SDS011;6031;50.220;10.122;2023-05-10T01:02:55;4.53;;;4.13;;
11943;SDS011;6031;50.220;10.122;2023-05-10T01:05:20;3.20;;;3.00;;
11943;SDS011;6031;50.220;10.122;2023-05-10T01:10:49;3.30;;;3.10;;
11943;SDS011;6031;50.220;10.122;2023-05-10T01:13:18;3.87;;;3.13;;
11943;SDS011;6031;50.220;10.122;2023-05-10T01:15:58;4.00;;;3.60;;
11943;SDS011;6031;50.220;10.122;2023-05-10T01:18:26;6.20;;;3.17;;
11943;SDS011;6031;50.220;10.122;2023-05-10T01:32:35;5.30;;;2.20;;
11943;SDS011;6031;50.220;10.122;2023-05-10T01:35:10;1.80;;;1.70;;
11943;SDS011;6031;50.220;10.122;2023-05-10T01:40:38;1.87;;;1.77;;
11943;SDS011;6031;50.220;10.122;2023-05-10T01:43:15;1.80;;;1.70;;
11943;SDS011;6031;50.220;10.122;2023-05-10T01:46:02;1.97;;;1.87;;
11943;SDS011;6031;50.220;10.122;2023-05-10T01:48:36;2.10;;;1.90;;
11943;SDS011;6031;50.220;10.122;2023-05-10T01:51:11;2.63;;;1.77;;
11943;SDS011;6031;50.220;10.122;2023-05-10T01:53:37;1.33;;;1.23;;
11943;SDS011;6031;50.220;10.122;2023-05-10T01:56:05;1.77;;;1.67;;
11943;SDS011;6031;50.220;10.122;2023-05-10T01:58:32;2.17;;;2.03;;
11943;SDS011;6031;50.220;10.122;2023-05-10T02:01:01;1.80;;;1.53;;
11943;SDS011;6031;50.220;10.122;2023-05-10T02:03:29;3.13;;;1.40;;
11943;SDS011;6031;50.220;10.122;2023-05-10T02:05:57;2.00;;;1.90;;
11943;SDS011;6031;50.220;10.122;2023-05-10T02:08:23;1.47;;;1.37;;
11943;SDS011;6031;50.220;10.122;2023-05-10T02:10:51;2.13;;;2.03;;
11943;SDS011;6031;50.220;10.122;2023-05-10T02:13:19;2.07;;;1.97;;
11943;SDS011;6031;50.220;10.122;2023-05-10T02:15:47;2.60;;;2.40;;
11943;SDS011;6031;50.220;10.122;2023-05-10T02:18:13;2.33;;;2.23;;
11943;SDS011;6031;50.220;10.122;2023-05-10T02:20:40;1.90;;;1.80;;
11943;SDS011;6031;50.220;10.122;2023-05-10T02:23:08;3.00;;;2.80;;
11943;SDS011;6031;50.220;10.122;2023-05-10T02:25:34;5.83;;;2.47;;
11943;SDS011;6031;50.220;10.122;2023-05-10T02:28:03;2.00;;;1.90;;
11943;SDS011;6031;50.220;10.122;2023-05-10T02:30:31;1.27;;;1.17;;
11943;SDS011;6031;50.220;10.122;2023-05-10T02:32:58;1.33;;;1.23;;
11943;SDS011;6031;50.220;10.122;2023-05-10T02:35:25;1.37;;;1.10;;
11943;SDS011;6031;50.220;10.122;2023-05-10T02:37:51;1.73;;;0.60;;
11943;SDS011;6031;50.220;10.122;2023-05-10T02:40:18;1.13;;;1.03;;
11943;SDS011;6031;50.220;10.122;2023-05-10T02:42:46;0.60;;;0.60;;
11943;SDS011;6031;50.220;10.122;2023-05-10T02:45:15;1.53;;;0.70;;
11943;SDS011;6031;50.220;10.122;2023-05-10T02:47:44;1.07;;;0.97;;
11943;SDS011;6031;50.220;10.122;2023-05-10T02:50:10;2.27;;;0.90;;
11943;SDS011;6031;50.220;10.122;2023-05-10T02:52:39;2.00;;;0.80;;
11943;SDS011;6031;50.220;10.122;2023-05-10T02:55:07;1.13;;;0.80;;
11943;SDS011;6031;50.220;10.122;2023-05-10T02:57:38;1.17;;;0.90;;
11943;SDS011;6031;50.220;10.122;2023-05-10T03:00:06;0.70;;;0.60;;
11943;SDS011;6031;50.220;10.122;2023-05-10T03:02:33;0.67;;;0.67;;
11943;SDS011;6031;50.220;10.122;2023-05-10T03:04:59;3.33;;;0.80;;
11943;SDS011;6031;50.220;10.122;2023-05-10T03:07:24;0.40;;;0.40;;
11943;SDS011;6031;50.220;10.122;2023-05-10T03:09:50;1.23;;;0.60;;
11943;SDS011;6031;50.220;10.122;2023-05-10T03:15:22;0.40;;;0.40;;
11943;SDS011;6031;50.220;10.122;2023-05-10T03:20:48;0.40;;;0.40;;
11943;SDS011;6031;50.220;10.122;2023-05-10T03:25:43;0.57;;;0.47;;
11943;SDS011;6031;50.220;10.122;2023-05-10T03:28:11;0.50;;;0.50;;
11943;SDS011;6031;50.220;10.122;2023-05-10T03:30:38;0.23;;;0.23;;
11943;SDS011;6031;50.220;10.122;2023-05-10T03:33:05;0.50;;;0.50;;
11943;SDS011;6031;50.220;10.122;2023-05-10T03:35:31;0.33;;;0.33;;
11943;SDS011;6031;50.220;10.122;2023-05-10T03:37:57;1.07;;;0.50;;
11943;SDS011;6031;50.220;10.122;2023-05-10T03:40:22;0.50;;;0.50;;
11943;SDS011;6031;50.220;10.122;2023-05-10T03:42:49;0.40;;;0.40;;
11943;SDS011;6031;50.220;10.122;2023-05-10T03:45:14;0.53;;;0.53;;
11943;SDS011;6031;50.220;10.122;2023-05-10T03:47:40;1.57;;;0.67;;
11943;SDS011;6031;50.220;10.122;2023-05-10T03:50:06;0.80;;;0.80;;
11943;SDS011;6031;50.220;10.122;2023-05-10T03:52:32;0.80;;;0.80;;
11943;SDS011;6031;50.220;10.122;2023-05-10T03:54:57;1.70;;;0.77;;
11943;SDS011;6031;50.220;10.122;2023-05-10T03:57:23;0.83;;;0.83;;
11943;SDS011;6031;50.220;10.122;2023-05-10T03:59:48;0.73;;;0.73;;
11943;SDS011;6031;50.220;10.122;2023-05-10T04:02:14;1.20;;;1.10;;
11943;SDS011;6031;50.220;10.122;2023-05-10T04:04:39;0.73;;;0.60;;
11943;SDS011;6031;50.220;10.122;2023-05-10T04:07:05;0.53;;;0.50;;
11943;SDS011;6031;50.220;10.122;2023-05-10T04:09:30;1.07;;;0.67;;
11943;SDS011;6031;50.220;10.122;2023-05-10T04:11:56;2.37;;;0.70;;
11943;SDS011;6031;50.220;10.122;2023-05-10T04:14:23;0.57;;;0.57;;
11943;SDS011;6031;50.220;10.122;2023-05-10T04:16:48;0.40;;;0.40;;
11943;SDS011;6031;50.220;10.122;2023-05-10T04:19:14;0.40;;;0.40;;
11943;SDS011;6031;50.220;10.122;2023-05-10T04:21:39;0.40;;;0.40;;
11943;SDS011;6031;50.220;10.122;2023-05-10T04:24:05;0.33;;;0.33;;
11943;SDS011;6031;50.220;10.122;2023-05-10T04:26:31;0.50;;;0.43;;
11943;SDS011;6031;50.220;10.122;2023-05-10T04:28:56;0.40;;;0.40;;
11943;SDS011;6031;50.220;10.122;2023-05-10T04:31:21;0.30;;;0.30;;
11943;SDS011;6031;50.220;10.122;2023-05-10T04:33:47;0.27;;;0.27;;
11943;SDS011;6031;50.220;10.122;2023-05-10T04:36:12;2.57;;;0.47;;
11943;SDS011;6031;50.220;10.122;2023-05-10T04:38:38;0.40;;;0.40;;
11943;SDS011;6031;50.220;10.122;2023-05-10T04:41:04;0.10;;;0.10;;
11943;SDS011;6031;50.220;10.122;2023-05-10T04:43:33;0.20;;;0.20;;
11943;SDS011;6031;50.220;10.122;2023-05-10T04:45:59;0.20;;;0.20;;
11943;SDS011;6031;50.220;10.122;2023-05-10T04:48:24;0.20;;;0.20;;
11943;SDS011;6031;50.220;10.122;2023-05-10T04:50:50;0.30;;;0.27;;
11943;SDS011;6031;50.220;10.122;2023-05-10T04:53:15;0.53;;;0.30;;
11943;SDS011;6031;50.220;10.122;2023-05-10T04:55:41;0.03;;;0.03;;
11943;SDS011;6031;50.220;10.122;2023-05-10T04:58:07;0.10;;;0.10;;
11943;SDS011;6031;50.220;10.122;2023-05-10T05:00:33;1.30;;;0.20;;
11943;SDS011;6031;50.220;10.122;2023-05-10T05:02:58;1.33;;;0.20;;
11943;SDS011;6031;50.220;10.122;2023-05-10T05:05:24;0.30;;;0.30;;
11943;SDS011;6031;50.220;10.122;2023-05-10T05:07:50;0.20;;;0.20;;
11943;SDS011;6031;50.220;10.122;2023-05-10T05:10:15;0.87;;;0.67;;
11943;SDS011;6031;50.220;10.122;2023-05-10T05:12:41;0.80;;;0.80;;
11943;SDS011;6031;50.220;10.122;2023-05-10T05:15:07;0.67;;;0.43;;
11943;SDS011;6031;50.220;10.122;2023-05-10T05:17:34;0.80;;;0.57;;
11943;SDS011;6031;50.220;10.122;2023-05-10T05:19:59;0.53;;;0.30;;
11943;SDS011;6031;50.220;10.122;2023-05-10T05:22:25;0.50;;;0.50;;
11943;SDS011;6031;50.220;10.122;2023-05-10T05:24:56;0.77;;;0.60;;
11943;SDS011;6031;50.220;10.122;2023-05-10T05:27:23;0.47;;;0.47;;
11943;SDS011;6031;50.220;10.122;2023-05-10T05:29:52;0.50;;;0.50;;
11943;SDS011;6031;50.220;10.122;2023-05-10T05:32:18;0.33;;;0.33;;
11943;SDS011;6031;50.220;10.122;2023-05-10T05:34:44;0.37;;;0.37;;
11943;SDS011;6031;50.220;10.122;2023-05-10T05:37:14;0.30;;;0.30;;
11943;SDS011;6031;50.220;10.122;2023-05-10T05:39:40;0.50;;;0.50;;
11943;SDS011;6031;50.220;10.122;2023-05-10T05:42:07;0.70;;;0.50;;
11943;SDS011;6031;50.220;10.122;2023-05-10T05:44:33;0.50;;;0.50;;
11943;SDS011;6031;50.220;10.122;2023-05-10T05:46:58;0.97;;;0.50;;
11943;SDS011;6031;50.220;10.122;2023-05-10T05:49:24;1.40;;;0.40;;
11943;SDS011;6031;50.220;10.122;2023-05-10T05:51:49;0.80;;;0.80;;
11943;SDS011;6031;50.220;10.122;2023-05-10T05:54:15;0.40;;;0.40;;
11943;SDS011;6031;50.220;10.122;2023-05-10T05:56:41;0.67;;;0.67;;
11943;SDS011;6031;50.220;10.122;2023-05-10T05:59:06;1.63;;;0.70;;
11943;SDS011;6031;50.220;10.122;2023-05-10T06:01:32;0.37;;;0.37;;
11943;SDS011;6031;50.220;10.122;2023-05-10T06:03:58;0.53;;;0.53;;
11943;SDS011;6031;50.220;10.122;2023-05-10T06:06:23;0.37;;;0.37;;
11943;SDS011;6031;50.220;10.122;2023-05-10T06:08:49;0.50;;;0.50;;
11943;SDS011;6031;50.220;10.122;2023-05-10T06:11:14;0.30;;;0.30;;
11943;SDS011;6031;50.220;10.122;2023-05-10T06:13:40;0.60;;;0.60;;
11943;SDS011;6031;50.220;10.122;2023-05-10T06:16:07;0.50;;;0.50;;
11943;SDS011;6031;50.220;10.122;2023-05-10T06:18:32;0.50;;;0.50;;
11943;SDS011;6031;50.220;10.122;2023-05-10T06:20:58;0.97;;;0.70;;
11943;SDS011;6031;50.220;10.122;2023-05-10T06:23:23;0.53;;;0.53;;
11943;SDS011;6031;50.220;10.122;2023-05-10T06:25:50;0.40;;;0.40;;
11943;SDS011;6031;50.220;10.122;2023-05-10T06:28:16;0.30;;;0.30;;
11943;SDS011;6031;50.220;10.122;2023-05-10T06:30:41;0.30;;;0.30;;
11943;SDS011;6031;50.220;10.122;2023-05-10T06:33:07;2.70;;;0.90;;
11943;SDS011;6031;50.220;10.122;2023-05-10T06:35:33;0.40;;;0.40;;
11943;SDS011;6031;50.220;10.122;2023-05-10T06:37:59;0.57;;;0.57;;
11943;SDS011;6031;50.220;10.122;2023-05-10T06:40:24;2.43;;;0.93;;
11943;SDS011;6031;50.220;10.122;2023-05-10T06:42:50;0.40;;;0.40;;
11943;SDS011;6031;50.220;10.122;2023-05-10T06:45:15;3.17;;;0.40;;
11943;SDS011;6031;50.220;10.122;2023-05-10T06:47:41;0.50;;;0.50;;
11943;SDS011;6031;50.220;10.122;2023-05-10T06:50:07;1.80;;;0.83;;
11943;SDS011;6031;50.220;10.122;2023-05-10T06:52:33;0.50;;;0.40;;
11943;SDS011;6031;50.220;10.122;2023-05-10T06:54:59;1.50;;;0.40;;
11943;SDS011;6031;50.220;10.122;2023-05-10T06:57:25;0.40;;;0.40;;
11943;SDS011;6031;50.220;10.122;2023-05-10T06:59:51;0.57;;;0.57;;
11943;SDS011;6031;50.220;10.122;2023-05-10T07:02:17;0.50;;;0.50;;
11943;SDS011;6031;50.220;10.122;2023-05-10T07:04:42;0.80;;;0.67;;
11943;SDS011;6031;50.220;10.122;2023-05-10T07:07:08;1.43;;;0.80;;
11943;SDS011;6031;50.220;10.122;2023-05-10T07:09:33;0.73;;;0.63;;
11943;SDS011;6031;50.220;10.122;2023-05-10T07:11:59;0.80;;;0.80;;
11943;SDS011;6031;50.220;10.122;2023-05-10T07:14:26;0.67;;;0.67;;
11943;SDS011;6031;50.220;10.122;2023-05-10T07:16:52;0.93;;;0.40;;
11943;SDS011;6031;50.220;10.122;2023-05-10T07:19:18;1.10;;;0.60;;
11943;SDS011;6031;50.220;10.122;2023-05-10T07:21:44;0.40;;;0.27;;
11943;SDS011;6031;50.220;10.122;2023-05-10T07:24:09;0.30;;;0.30;;
11943;SDS011;6031;50.220;10.122;2023-05-10T07:26:35;1.83;;;1.63;;
11943;SDS011;6031;50.220;10.122;2023-05-10T07:29:00;2.53;;;0.40;;
11943;SDS011;6031;50.220;10.122;2023-05-10T07:31:26;0.87;;;0.63;;
11943;SDS011;6031;50.220;10.122;2023-05-10T07:33:51;1.20;;;0.63;;
11943;SDS011;6031;50.220;10.122;2023-05-10T07:36:17;2.10;;;1.57;;
11943;SDS011;6031;50.220;10.122;2023-05-10T07:38:42;1.10;;;0.63;;
11943;SDS011;6031;50.220;10.122;2023-05-10T07:41:08;0.40;;;0.40;;
11943;SDS011;6031;50.220;10.122;2023-05-10T07:43:34;1.33;;;0.67;;
11943;SDS011;6031;50.220;10.122;2023-05-10T07:46:00;0.77;;;0.30;;
11943;SDS011;6031;50.220;10.122;2023-05-10T07:48:26;0.60;;;0.60;;
11943;SDS011;6031;50.220;10.122;2023-05-10T07:50:51;0.83;;;0.80;;
11943;SDS011;6031;50.220;10.122;2023-05-10T07:53:17;1.40;;;0.50;;
11943;SDS011;6031;50.220;10.122;2023-05-10T07:55:43;0.70;;;0.70;;
11943;SDS011;6031;50.220;10.122;2023-05-10T07:58:09;0.50;;;0.50;;
11943;SDS011;6031;50.220;10.122;2023-05-10T08:00:35;0.83;;;0.83;;
11943;SDS011;6031;50.220;10.122;2023-05-10T08:03:04;1.73;;;0.53;;
11943;SDS011;6031;50.220;10.122;2023-05-10T08:05:29;0.50;;;0.50;;
11943;SDS011;6031;50.220;10.122;2023-05-10T08:07:55;1.00;;;0.93;;
11943;SDS011;6031;50.220;10.122;2023-05-10T08:10:20;1.43;;;0.73;;
11943;SDS011;6031;50.220;10.122;2023-05-10T08:12:46;0.80;;;0.80;;
11943;SDS011;6031;50.220;10.122;2023-05-10T08:15:11;0.83;;;0.83;;
11943;SDS011;6031;50.220;10.122;2023-05-10T08:17:37;0.83;;;0.77;;
11943;SDS011;6031;50.220;10.122;2023-05-10T08:20:02;1.40;;;1.00;;
11943;SDS011;6031;50.220;10.122;2023-05-10T08:22:28;1.10;;;0.87;;
11943;SDS011;6031;50.220;10.122;2023-05-10T08:24:53;0.63;;;0.57;;
11943;SDS011;6031;50.220;10.122;2023-05-10T08:27:19;0.70;;;0.63;;
11943;SDS011;6031;50.220;10.122;2023-05-10T08:29:44;1.13;;;1.00;;
11943;SDS011;6031;50.220;10.122;2023-05-10T08:32:10;0.70;;;0.70;;
11943;SDS011;6031;50.220;10.122;2023-05-10T08:34:35;3.77;;;0.77;;
11943;SDS011;6031;50.220;10.122;2023-05-10T08:37:01;0.60;;;0.60;;
11943;SDS011;6031;50.220;10.122;2023-05-10T08:39:26;1.17;;;1.17;;
11943;SDS011;6031;50.220;10.122;2023-05-10T08:41:52;1.00;;;1.00;;
11943;SDS011;6031;50.220;10.122;2023-05-10T08:44:19;2.20;;;0.90;;
11943;SDS011;6031;50.220;10.122;2023-05-10T08:46:46;1.83;;;1.13;;
11943;SDS011;6031;50.220;10.122;2023-05-10T08:49:13;2.33;;;1.97;;
11943;SDS011;6031;50.220;10.122;2023-05-10T08:51:47;2.27;;;2.17;;
11943;SDS011;6031;50.220;10.122;2023-05-10T08:54:19;2.20;;;2.10;;
11943;SDS011;6031;50.220;10.122;2023-05-10T08:56:46;1.93;;;1.83;;
11943;SDS011;6031;50.220;10.122;2023-05-10T08:59:12;2.37;;;1.87;;
11943;SDS011;6031;50.220;10.122;2023-05-10T09:01:38;2.33;;;2.00;;
11943;SDS011;6031;50.220;10.122;2023-05-10T09:04:06;3.57;;;1.97;;
11943;SDS011;6031;50.220;10.122;2023-05-10T09:06:31;2.50;;;1.87;;
11943;SDS011;6031;50.220;10.122;2023-05-10T09:08:58;1.80;;;1.70;;
11943;SDS011;6031;50.220;10.122;2023-05-10T09:11:24;2.43;;;2.00;;
11943;SDS011;6031;50.220;10.122;2023-05-10T09:13:50;2.20;;;2.10;;
11943;SDS011;6031;50.220;10.122;2023-05-10T09:16:17;2.23;;;1.90;;
11943;SDS011;6031;50.220;10.122;2023-05-10T09:18:43;1.60;;;1.50;;
11943;SDS011;6031;50.220;10.122;2023-05-10T09:21:09;1.93;;;1.83;;
11943;SDS011;6031;50.220;10.122;2023-05-10T09:23:35;1.90;;;1.80;;
11943;SDS011;6031;50.220;10.122;2023-05-10T09:26:04;1.90;;;1.80;;
11943;SDS011;6031;50.220;10.122;2023-05-10T09:28:33;1.77;;;1.67;;
11943;SDS011;6031;50.220;10.122;2023-05-10T09:30:59;1.97;;;1.87;;
11943;SDS011;6031;50.220;10.122;2023-05-10T09:33:25;2.40;;;2.00;;
11943;SDS011;6031;50.220;10.122;2023-05-10T09:35:51;2.37;;;2.27;;
11943;SDS011;6031;50.220;10.122;2023-05-10T09:38:17;2.47;;;2.23;;
11943;SDS011;6031;50.220;10.122;2023-05-10T09:40:42;3.97;;;2.03;;
11943;SDS011;6031;50.220;10.122;2023-05-10T09:43:19;2.40;;;2.20;;
11943;SDS011;6031;50.220;10.122;2023-05-10T09:45:45;2.20;;;2.07;;
11943;SDS011;6031;50.220;10.122;2023-05-10T09:48:13;2.33;;;2.23;;
11943;SDS011;6031;50.220;10.122;2023-05-10T09:50:39;2.60;;;2.40;;
11943;SDS011;6031;50.220;10.122;2023-05-10T09:53:05;3.27;;;2.07;;
11943;SDS011;6031;50.220;10.122;2023-05-10T09:55:41;3.23;;;2.00;;
11943;SDS011;6031;50.220;10.122;2023-05-10T09:58:11;2.23;;;2.03;;
11943;SDS011;6031;50.220;10.122;2023-05-10T10:00:38;2.47;;;1.90;;
11943;SDS011;6031;50.220;10.122;2023-05-10T10:03:05;1.63;;;1.53;;
11943;SDS011;6031;50.220;10.122;2023-05-10T10:05:32;2.83;;;1.77;;
11943;SDS011;6031;50.220;10.122;2023-05-10T10:07:59;2.90;;;1.47;;
11943;SDS011;6031;50.220;10.122;2023-05-10T10:10:25;6.20;;;2.00;;
11943;SDS011;6031;50.220;10.122;2023-05-10T10:12:52;2.80;;;1.60;;
11943;SDS011;6031;50.220;10.122;2023-05-10T10:15:18;2.43;;;1.47;;
11943;SDS011;6031;50.220;10.122;2023-05-10T10:17:45;2.03;;;1.93;;
11943;SDS011;6031;50.220;10.122;2023-05-10T10:20:11;1.67;;;1.57;;
11943;SDS011;6031;50.220;10.122;2023-05-10T10:22:37;2.47;;;1.30;;
11943;SDS011;6031;50.220;10.122;2023-05-10T10:25:03;2.20;;;2.10;;
11943;SDS011;6031;50.220;10.122;2023-05-10T10:27:44;1.90;;;1.80;;
11943;SDS011;6031;50.220;10.122;2023-05-10T10:35:38;2.93;;;2.47;;
11943;SDS011;6031;50.220;10.122;2023-05-10T10:38:04;3.43;;;2.93;;
11943;SDS011;6031;50.220;10.122;2023-05-10T10:40:33;2.30;;;2.10;;
11943;SDS011;6031;50.220;10.122;2023-05-10T10:46:09;1.97;;;1.87;;
11943;SDS011;6031;50.220;10.122;2023-05-10T10:48:43;1.90;;;1.80;;
11943;SDS011;6031;50.220;10.122;2023-05-10T10:51:13;1.57;;;1.50;;
11943;SDS011;6031;50.220;10.122;2023-05-10T10:53:39;2.37;;;2.17;;
11943;SDS011;6031;50.220;10.122;2023-05-10T10:56:07;1.40;;;1.30;;
11943;SDS011;6031;50.220;10.122;2023-05-10T10:58:34;1.93;;;1.40;;
11943;SDS011;6031;50.220;10.122;2023-05-10T11:03:39;3.33;;;1.47;;
11943;SDS011;6031;50.220;10.122;2023-05-10T11:06:05;1.60;;;1.50;;
11943;SDS011;6031;50.220;10.122;2023-05-10T11:08:31;1.40;;;1.30;;
11943;SDS011;6031;50.220;10.122;2023-05-10T11:13:28;2.47;;;1.40;;
11943;SDS011;6031;50.220;10.122;2023-05-10T11:15:59;1.00;;;1.00;;
11943;SDS011;6031;50.220;10.122;2023-05-10T11:18:58;1.90;;;1.33;;
11943;SDS011;6031;50.220;10.122;2023-05-10T11:21:26;2.50;;;1.73;;
11943;SDS011;6031;50.220;10.122;2023-05-10T11:23:53;5.27;;;1.90;;
11943;SDS011;6031;50.220;10.122;2023-05-10T11:26:23;2.20;;;1.57;;
11943;SDS011;6031;50.220;10.122;2023-05-10T11:28:51;2.60;;;1.87;;
11943;SDS011;6031;50.220;10.122;2023-05-10T11:31:20;1.37;;;1.27;;
11943;SDS011;6031;50.220;10.122;2023-05-10T11:33:50;1.43;;;1.33;;
11943;SDS011;6031;50.220;10.122;2023-05-10T11:38:46;1.60;;;1.50;;
11943;SDS011;6031;50.220;10.122;2023-05-10T11:41:13;2.43;;;1.77;;
11943;SDS011;6031;50.220;10.122;2023-05-10T11:43:40;2.37;;;1.63;;
11943;SDS011;6031;50.220;10.122;2023-05-10T11:46:10;1.60;;;1.50;;
11943;SDS011;6031;50.220;10.122;2023-05-10T11:48:40;1.40;;;1.30;;
11943;SDS011;6031;50.220;10.122;2023-05-10T11:51:07;3.17;;;1.33;;
11943;SDS011;6031;50.220;10.122;2023-05-10T11:53:33;1.17;;;1.17;;
11943;SDS011;6031;50.220;10.122;2023-05-10T11:56:03;1.30;;;1.20;;
11943;SDS011;6031;50.220;10.122;2023-05-10T11:58:30;1.20;;;1.10;;
11943;SDS011;6031;50.220;10.122;2023-05-10T12:00:57;1.63;;;1.30;;
11943;SDS011;6031;50.220;10.122;2023-05-10T12:03:23;1.40;;;1.30;;
11943;SDS011;6031;50.220;10.122;2023-05-10T12:05:49;1.53;;;1.00;;
11943;SDS011;6031;50.220;10.122;2023-05-10T12:08:15;1.37;;;1.07;;
11943;SDS011;6031;50.220;10.122;2023-05-10T12:10:45;0.87;;;0.83;;
11943;SDS011;6031;50.220;10.122;2023-05-10T12:13:11;9.30;;;1.37;;
11943;SDS011;6031;50.220;10.122;2023-05-10T12:15:38;2.03;;;0.70;;
11943;SDS011;6031;50.220;10.122;2023-05-10T12:18:04;1.40;;;0.70;;
11943;SDS011;6031;50.220;10.122;2023-05-10T12:20:30;0.90;;;0.80;;
11943;SDS011;6031;50.220;10.122;2023-05-10T12:22:57;0.97;;;0.90;;
11943;SDS011;6031;50.220;10.122;2023-05-10T12:25:23;1.40;;;0.83;;
11943;SDS011;6031;50.220;10.122;2023-05-10T12:27:55;0.83;;;0.83;;
11943;SDS011;6031;50.220;10.122;2023-05-10T12:30:27;1.10;;;1.00;;
11943;SDS011;6031;50.220;10.122;2023-05-10T12:32:59;2.53;;;1.10;;
11943;SDS011;6031;50.220;10.122;2023-05-10T12:35:26;1.80;;;0.93;;
11943;SDS011;6031;50.220;10.122;2023-05-10T12:37:54;3.07;;;0.87;;
11943;SDS011;6031;50.220;10.122;2023-05-10T12:40:20;1.60;;;1.00;;
11943;SDS011;6031;50.220;10.122;2023-05-10T12:42:45;2.63;;;1.20;;
11943;SDS011;6031;50.220;10.122;2023-05-10T12:45:11;2.20;;;1.10;;
11943;SDS011;6031;50.220;10.122;2023-05-10T12:47:37;3.60;;;1.10;;
11943;SDS011;6031;50.220;10.122;2023-05-10T12:50:03;1.43;;;1.43;;
11943;SDS011;6031;50.220;10.122;2023-05-10T12:52:30;1.23;;;1.20;;
11943;SDS011;6031;50.220;10.122;2023-05-10T12:54:57;1.03;;;0.93;;
11943;SDS011;6031;50.220;10.122;2023-05-10T12:57:23;2.03;;;1.00;;
11943;SDS011;6031;50.220;10.122;2023-05-10T12:59:49;1.97;;;1.10;;
11943;SDS011;6031;50.220;10.122;2023-05-10T13:02:15;1.03;;;1.03;;
11943;SDS011;6031;50.220;10.122;2023-05-10T13:04:42;3.30;;;1.50;;
11943;SDS011;6031;50.220;10.122;2023-05-10T13:07:09;3.90;;;1.53;;
11943;SDS011;6031;50.220;10.122;2023-05-10T13:09:34;1.17;;;1.17;;
11943;SDS011;6031;50.220;10.122;2023-05-10T13:12:00;1.23;;;1.13;;
11943;SDS011;6031;50.220;10.122;2023-05-10T13:14:26;1.07;;;1.07;;
11943;SDS011;6031;50.220;10.122;2023-05-10T13:16:52;2.83;;;0.87;;
11943;SDS011;6031;50.220;10.122;2023-05-10T13:19:18;0.50;;;0.50;;
11943;SDS011;6031;50.220;10.122;2023-05-10T13:21:43;0.57;;;0.57;;
11943;SDS011;6031;50.220;10.122;2023-05-10T13:24:11;2.97;;;0.73;;
11943;SDS011;6031;50.220;10.122;2023-05-10T13:26:38;1.20;;;1.10;;
11943;SDS011;6031;50.220;10.122;2023-05-10T13:29:05;1.07;;;0.97;;
11943;SDS011;6031;50.220;10.122;2023-05-10T13:31:31;1.07;;;1.07;;
11943;SDS011;6031;50.220;10.122;2023-05-10T13:33:56;3.30;;;1.27;;
11943;SDS011;6031;50.220;10.122;2023-05-10T13:36:22;0.93;;;0.93;;
11943;SDS011;6031;50.220;10.122;2023-05-10T13:38:48;4.07;;;1.60;;
11943;SDS011;6031;50.220;10.122;2023-05-10T13:41:13;1.53;;;0.90;;
11943;SDS011;6031;50.220;10.122;2023-05-10T13:43:39;2.50;;;1.27;;
11943;SDS011;6031;50.220;10.122;2023-05-10T13:46:05;6.47;;;4.77;;
11943;SDS011;6031;50.220;10.122;2023-05-10T13:48:30;0.93;;;0.90;;
11943;SDS011;6031;50.220;10.122;2023-05-10T13:50:56;0.87;;;0.60;;
11943;SDS011;6031;50.220;10.122;2023-05-10T13:53:21;0.70;;;0.70;;
11943;SDS011;6031;50.220;10.122;2023-05-10T13:55:47;2.70;;;1.90;;
11943;SDS011;6031;50.220;10.122;2023-05-10T13:58:13;0.70;;;0.60;;
11943;SDS011;6031;50.220;10.122;2023-05-10T14:00:38;1.07;;;1.07;;
11943;SDS011;6031;50.220;10.122;2023-05-10T14:03:04;1.57;;;1.47;;
11943;SDS011;6031;50.220;10.122;2023-05-10T14:05:31;1.03;;;0.97;;
11943;SDS011;6031;50.220;10.122;2023-05-10T14:07:56;1.03;;;0.90;;
11943;SDS011;6031;50.220;10.122;2023-05-10T14:10:22;2.73;;;0.90;;
11943;SDS011;6031;50.220;10.122;2023-05-10T14:12:47;1.10;;;1.00;;
11943;SDS011;6031;50.220;10.122;2023-05-10T14:15:13;1.27;;;1.17;;
11943;SDS011;6031;50.220;10.122;2023-05-10T14:17:38;1.03;;;0.93;;
11943;SDS011;6031;50.220;10.122;2023-05-10T14:20:04;1.13;;;0.70;;
11943;SDS011;6031;50.220;10.122;2023-05-10T14:22:30;1.80;;;1.00;;
11943;SDS011;6031;50.220;10.122;2023-05-10T14:24:56;1.50;;;1.40;;
11943;SDS011;6031;50.220;10.122;2023-05-10T14:27:22;1.50;;;1.20;;
11943;SDS011;6031;50.220;10.122;2023-05-10T14:29:48;0.60;;;0.60;;
11943;SDS011;6031;50.220;10.122;2023-05-10T14:32:13;1.03;;;1.03;;
11943;SDS011;6031;50.220;10.122;2023-05-10T14:34:39;1.23;;;1.13;;
11943;SDS011;6031;50.220;10.122;2023-05-10T14:37:04;1.47;;;1.23;;
11943;SDS011;6031;50.220;10.122;2023-05-10T14:39:30;1.40;;;1.10;;
11943;SDS011;6031;50.220;10.122;2023-05-10T14:41:55;1.03;;;1.03;;
11943;SDS011;6031;50.220;10.122;2023-05-10T14:44:21;3.50;;;2.60;;
11943;SDS011;6031;50.220;10.122;2023-05-10T14:46:47;1.17;;;1.00;;
11943;SDS011;6031;50.220;10.122;2023-05-10T14:49:13;0.83;;;0.83;;
11943;SDS011;6031;50.220;10.122;2023-05-10T14:51:39;0.93;;;0.70;;
11943;SDS011;6031;50.220;10.122;2023-05-10T14:54:04;1.00;;;0.83;;
11943;SDS011;6031;50.220;10.122;2023-05-10T14:56:31;0.97;;;0.97;;
11943;SDS011;6031;50.220;10.122;2023-05-10T14:58:57;2.67;;;0.90;;
11943;SDS011;6031;50.220;10.122;2023-05-10T15:01:22;3.27;;;1.47;;
11943;SDS011;6031;50.220;10.122;2023-05-10T15:03:48;0.90;;;0.90;;
11943;SDS011;6031;50.220;10.122;2023-05-10T15:06:14;1.07;;;1.07;;
11943;SDS011;6031;50.220;10.122;2023-05-10T15:08:41;3.07;;;1.20;;
11943;SDS011;6031;50.220;10.122;2023-05-10T15:11:06;1.70;;;1.13;;
11943;SDS011;6031;50.220;10.122;2023-05-10T15:13:32;0.80;;;0.80;;
11943;SDS011;6031;50.220;10.122;2023-05-10T15:15:57;0.83;;;0.83;;
11943;SDS011;6031;50.220;10.122;2023-05-10T15:18:23;1.10;;;0.80;;
11943;SDS011;6031;50.220;10.122;2023-05-10T15:20:48;2.87;;;1.10;;
11943;SDS011;6031;50.220;10.122;2023-05-10T15:23:14;1.90;;;0.73;;
11943;SDS011;6031;50.220;10.122;2023-05-10T15:25:39;0.80;;;0.80;;
11943;SDS011;6031;50.220;10.122;2023-05-10T15:28:05;1.37;;;0.80;;